Terminal Aerodrome Forecast
Issued by NWS

Home | Current Version | Previous Version | Graphics & Text | Print | Product List | Glossary On
Versions: 1 2 3 4 5 6 7 8 9 10 11 12 13
000
FTUS43 KTOP 202339
TAFFOE
TAF
KFOE 202339Z 2100/2124 16018G26KT P6SM SCT080
     FM210500 16019G27KT P6SM BKN035 WS020/18035KT
     FM211300 18018G27KT P6SM OVC010
     FM211700 19016G28KT P6SM BKN020
     FM212200 22012KT 4SM SHRA VCTS OVC020CB=

USA.gov is the U.S. government's official web portal to all federal, state and local government web resources and services.